createdAt,value
2023-05-12T00:00:48.187Z,9.80
2023-05-12T00:03:16.250Z,9.70
2023-05-12T00:05:44.218Z,9.70
2023-05-12T00:08:12.199Z,9.60
2023-05-12T00:10:40.389Z,9.60
2023-05-12T00:13:09.264Z,9.60
2023-05-12T00:15:39.245Z,9.60
2023-05-12T00:18:07.286Z,9.60
2023-05-12T00:20:35.350Z,9.60
2023-05-12T00:23:03.685Z,9.70
2023-05-12T00:25:31.626Z,9.60
2023-05-12T00:27:59.748Z,9.70
2023-05-12T00:30:27.923Z,9.60
2023-05-12T00:32:58.641Z,9.70
2023-05-12T00:35:26.641Z,9.60
2023-05-12T00:37:54.916Z,9.70
2023-05-12T00:40:22.869Z,9.70
2023-05-12T00:42:50.736Z,9.80
2023-05-12T00:45:18.828Z,9.80
2023-05-12T00:47:47.244Z,9.80
2023-05-12T00:50:16.908Z,9.80
2023-05-12T00:52:45.263Z,9.70
2023-05-12T00:55:13.178Z,9.70
2023-05-12T00:57:41.615Z,9.60
2023-05-12T01:00:10.671Z,9.60
2023-05-12T01:02:41.071Z,9.50
2023-05-12T01:05:10.617Z,9.50
2023-05-12T01:07:40.681Z,9.40
2023-05-12T01:10:19.510Z,9.40
2023-05-12T01:12:48.306Z,9.40
2023-05-12T01:15:16.904Z,9.50
2023-05-12T01:17:51.374Z,9.50
2023-05-12T01:20:21.346Z,9.50
2023-05-12T01:22:51.090Z,9.60
2023-05-12T01:25:23.304Z,9.50
2023-05-12T01:27:53.710Z,9.50
2023-05-12T01:30:26.320Z,9.60
2023-05-12T01:32:54.683Z,9.60
2023-05-12T01:35:22.654Z,9.60
2023-05-12T01:38:01.495Z,9.50
2023-05-12T01:40:30.016Z,9.40
2023-05-12T01:43:00.179Z,9.40
2023-05-12T01:45:33.370Z,9.50
2023-05-12T01:48:01.887Z,9.50
2023-05-12T01:50:30.015Z,9.50
2023-05-12T01:52:58.820Z,9.60
2023-05-12T01:55:27.247Z,9.60
2023-05-12T01:57:57.864Z,9.50
2023-05-12T02:00:27.928Z,9.40
2023-05-12T02:02:58.724Z,9.30
2023-05-12T02:05:26.865Z,9.20
2023-05-12T02:07:55.329Z,9.10
2023-05-12T02:10:23.250Z,9.10
2023-05-12T02:12:51.178Z,9.10
2023-05-12T02:15:19.148Z,9.10
2023-05-12T02:17:53.802Z,9.00
2023-05-12T02:20:22.597Z,9.00
2023-05-12T02:22:50.593Z,9.00
2023-05-12T02:25:18.535Z,8.90
2023-05-12T02:27:46.699Z,8.80
2023-05-12T02:30:15.865Z,8.80
2023-05-12T02:32:43.890Z,8.80
2023-05-12T02:35:14.366Z,8.80
2023-05-12T02:37:43.252Z,9.00
2023-05-12T02:40:11.915Z,9.00
2023-05-12T02:42:41.438Z,9.10
2023-05-12T02:45:10.471Z,9.10
2023-05-12T02:47:38.504Z,9.20
2023-05-12T02:50:09.171Z,9.20
2023-05-12T02:52:38.480Z,9.30
2023-05-12T02:55:06.766Z,9.30
2023-05-12T02:57:34.794Z,9.40
2023-05-12T03:00:05.842Z,9.30
2023-05-12T03:02:37.323Z,9.40
2023-05-12T03:05:05.992Z,9.30
2023-05-12T03:07:34.411Z,9.40
2023-05-12T03:10:04.382Z,9.40
2023-05-12T03:12:32.626Z,9.40
2023-05-12T03:15:01.003Z,9.30
2023-05-12T03:17:29.294Z,9.20
2023-05-12T03:19:57.685Z,9.10
2023-05-12T03:22:25.693Z,8.90
2023-05-12T03:24:53.807Z,8.90
2023-05-12T03:27:23.101Z,8.80
2023-05-12T03:29:51.807Z,8.80
2023-05-12T03:32:19.789Z,8.80
2023-05-12T03:34:47.754Z,8.80
2023-05-12T03:37:17.290Z,8.80
2023-05-12T03:39:46.123Z,8.80
2023-05-12T03:42:15.333Z,8.80
2023-05-12T03:44:44.768Z,8.80
2023-05-12T03:47:13.674Z,8.70
2023-05-12T03:49:41.762Z,8.80
2023-05-12T03:52:09.761Z,8.80
2023-05-12T03:54:38.559Z,8.80
2023-05-12T03:57:07.411Z,8.90
2023-05-12T03:59:35.336Z,8.90
2023-05-12T04:02:04.814Z,9.00
2023-05-12T04:04:32.770Z,9.10
2023-05-12T04:07:01.064Z,9.30
2023-05-12T04:09:29.024Z,9.30
2023-05-12T04:11:56.948Z,9.40
2023-05-12T04:14:35.360Z,9.40
2023-05-12T04:17:11.526Z,9.50
2023-05-12T04:19:39.410Z,9.70
2023-05-12T04:22:07.572Z,9.80
2023-05-12T04:24:37.452Z,9.90
2023-05-12T04:27:05.914Z,10.00
2023-05-12T04:29:33.781Z,10.00
2023-05-12T04:32:01.782Z,10.10
2023-05-12T04:34:31.169Z,10.20
2023-05-12T04:36:59.325Z,10.40
2023-05-12T04:39:27.210Z,10.50
2023-05-12T04:41:55.695Z,10.60
2023-05-12T04:44:25.202Z,10.70
2023-05-12T04:46:56.141Z,10.80
2023-05-12T04:49:24.234Z,10.80
2023-05-12T04:51:53.737Z,10.80
2023-05-12T04:54:21.882Z,10.70
2023-05-12T04:56:50.027Z,10.70
2023-05-12T04:59:18.225Z,10.80
2023-05-12T05:01:47.819Z,10.70
2023-05-12T05:04:18.064Z,10.60
2023-05-12T05:06:47.065Z,10.70
2023-05-12T05:09:17.388Z,10.70
2023-05-12T05:11:45.400Z,10.80
2023-05-12T05:14:13.686Z,10.80
2023-05-12T05:16:41.700Z,10.90
2023-05-12T05:19:19.573Z,11.00
2023-05-12T05:21:48.608Z,11.30
2023-05-12T05:24:18.495Z,11.50
2023-05-12T05:26:47.081Z,11.70
2023-05-12T05:29:15.214Z,12.00
2023-05-12T05:31:43.530Z,12.20
2023-05-12T05:34:12.443Z,12.30
2023-05-12T05:36:40.387Z,12.20
2023-05-12T05:39:10.269Z,12.20
2023-05-12T05:41:39.814Z,12.30
2023-05-12T05:44:09.304Z,12.30
2023-05-12T05:46:37.242Z,12.30
2023-05-12T05:49:05.340Z,12.30
2023-05-12T05:51:33.556Z,12.30
2023-05-12T05:54:01.721Z,12.40
2023-05-12T05:56:30.326Z,12.50
2023-05-12T05:59:02.488Z,12.60
2023-05-12T06:01:30.977Z,12.30
2023-05-12T06:03:59.246Z,12.20
2023-05-12T06:06:27.355Z,12.30
2023-05-12T06:08:56.035Z,12.20
2023-05-12T06:11:24.538Z,12.40
2023-05-12T06:13:52.599Z,12.40
2023-05-12T06:16:21.979Z,12.40
2023-05-12T06:18:49.997Z,12.40
2023-05-12T06:21:17.891Z,12.60
2023-05-12T06:23:47.498Z,12.70
2023-05-12T06:26:15.842Z,13.00
2023-05-12T06:28:43.864Z,13.20
2023-05-12T06:31:11.834Z,13.50
2023-05-12T06:33:41.983Z,13.60
2023-05-12T06:36:11.943Z,13.50
2023-05-12T06:38:39.904Z,13.90
2023-05-12T06:41:07.839Z,13.90
2023-05-12T06:43:35.921Z,13.80
2023-05-12T06:46:05.056Z,13.60
2023-05-12T06:48:32.990Z,13.40
2023-05-12T06:51:02.306Z,13.40
2023-05-12T06:53:30.456Z,13.60
2023-05-12T06:55:58.914Z,14.00
2023-05-12T06:58:26.960Z,14.20
2023-05-12T07:00:54.875Z,14.30
2023-05-12T07:03:22.980Z,14.80
2023-05-12T07:05:51.246Z,15.60
2023-05-12T07:08:20.509Z,15.80
2023-05-12T07:10:48.489Z,15.70
2023-05-12T07:13:16.579Z,15.50
2023-05-12T07:15:44.560Z,15.50
2023-05-12T07:18:12.572Z,15.10
2023-05-12T07:20:40.542Z,14.90
2023-05-12T07:23:09.247Z,14.80
2023-05-12T07:25:39.277Z,15.30
2023-05-12T07:28:07.585Z,15.70
2023-05-12T07:30:35.783Z,15.90
2023-05-12T07:33:03.708Z,16.10
2023-05-12T07:35:32.274Z,16.40
2023-05-12T07:38:00.236Z,16.70
2023-05-12T07:40:28.200Z,17.10
2023-05-12T07:42:57.677Z,16.70
2023-05-12T07:45:25.868Z,16.30
2023-05-12T07:47:54.052Z,16.80
2023-05-12T07:50:22.418Z,17.00
2023-05-12T07:52:51.303Z,17.00
2023-05-12T07:55:21.257Z,16.50
2023-05-12T07:57:51.312Z,17.40
2023-05-12T08:00:21.240Z,17.30
2023-05-12T08:02:49.409Z,17.30
2023-05-12T08:05:17.948Z,18.30
2023-05-12T08:07:47.187Z,19.00
2023-05-12T08:10:15.307Z,19.50
2023-05-12T08:12:43.898Z,20.30
2023-05-12T08:15:12.450Z,20.40
2023-05-12T08:17:41.742Z,19.90
2023-05-12T08:20:10.747Z,19.40
2023-05-12T08:22:39.996Z,18.80
2023-05-12T08:25:12.298Z,19.30
2023-05-12T08:27:40.615Z,19.30
2023-05-12T08:30:09.564Z,18.40
2023-05-12T08:32:37.658Z,18.00
2023-05-12T08:35:08.205Z,18.10
2023-05-12T08:37:36.610Z,18.50
2023-05-12T08:40:11.103Z,17.40
2023-05-12T08:42:43.746Z,17.30
2023-05-12T08:45:12.939Z,17.00
2023-05-12T08:47:42.113Z,16.80
2023-05-12T08:50:13.819Z,16.60
2023-05-12T08:52:41.887Z,16.00
2023-05-12T08:55:10.940Z,15.80
2023-05-12T08:57:39.884Z,15.80
2023-05-12T09:00:12.164Z,15.20
2023-05-12T09:02:52.171Z,14.90
2023-05-12T09:05:23.494Z,14.70
2023-05-12T09:07:52.932Z,15.00
2023-05-12T09:10:34.182Z,15.20
2023-05-12T09:13:09.067Z,15.30
2023-05-12T09:15:42.203Z,15.20
2023-05-12T09:18:10.246Z,15.40
2023-05-12T09:20:40.065Z,15.60
2023-05-12T09:23:15.865Z,15.60
2023-05-12T09:25:43.893Z,15.80
2023-05-12T09:28:13.103Z,15.90
2023-05-12T09:30:42.926Z,16.10
2023-05-12T09:33:12.718Z,16.30
2023-05-12T09:35:43.413Z,16.40
2023-05-12T09:38:13.235Z,16.10
2023-05-12T09:40:42.755Z,16.10
2023-05-12T09:43:15.422Z,16.10
2023-05-12T09:45:46.558Z,16.00
2023-05-12T09:48:15.536Z,16.10
2023-05-12T09:50:49.667Z,16.30
2023-05-12T09:53:19.918Z,16.50
2023-05-12T09:55:49.172Z,16.70
2023-05-12T09:58:19.848Z,16.90
2023-05-12T10:03:22.907Z,16.60
2023-05-12T10:05:58.369Z,16.70
2023-05-12T10:08:30.970Z,16.70
2023-05-12T10:11:06.582Z,16.40
2023-05-12T10:13:39.071Z,16.50
2023-05-12T10:16:08.613Z,16.20
2023-05-12T10:18:37.019Z,16.00
2023-05-12T10:21:08.727Z,15.80
2023-05-12T10:23:41.101Z,15.80
2023-05-12T10:26:10.628Z,16.20
2023-05-12T10:28:38.759Z,16.50
2023-05-12T10:31:08.078Z,16.80
2023-05-12T10:33:36.294Z,16.60
2023-05-12T10:36:07.363Z,16.80
2023-05-12T10:38:38.061Z,16.70
2023-05-12T10:41:08.185Z,17.50
2023-05-12T10:43:41.933Z,17.90
2023-05-12T10:46:16.614Z,17.40
2023-05-12T10:48:56.402Z,17.30
2023-05-12T10:51:28.554Z,17.60
2023-05-12T10:54:01.046Z,18.20
2023-05-12T10:56:31.209Z,18.90
2023-05-12T10:59:18.850Z,18.30
2023-05-12T11:02:02.298Z,18.50
2023-05-12T11:04:42.257Z,18.30
2023-05-12T11:07:14.294Z,17.80
2023-05-12T11:09:56.499Z,17.70
2023-05-12T11:12:28.008Z,17.30
2023-05-12T11:14:56.256Z,16.90
2023-05-12T11:17:24.522Z,16.20
2023-05-12T11:19:53.562Z,15.60
2023-05-12T11:22:24.303Z,15.60
2023-05-12T11:24:53.519Z,15.70
2023-05-12T11:27:23.459Z,15.70
2023-05-12T11:29:57.860Z,15.30
2023-05-12T11:32:26.252Z,15.50
2023-05-12T11:34:54.296Z,15.10
2023-05-12T11:37:26.354Z,15.10
2023-05-12T11:39:54.367Z,15.00
2023-05-12T11:42:25.099Z,15.70
2023-05-12T11:44:55.388Z,16.20
2023-05-12T11:47:24.860Z,16.70
2023-05-12T11:49:55.810Z,17.10
2023-05-12T11:52:25.932Z,17.30
2023-05-12T11:54:57.849Z,17.50
2023-05-12T11:57:30.171Z,17.80
2023-05-12T12:00:00.490Z,17.60
2023-05-12T12:02:29.459Z,17.70
2023-05-12T12:04:57.890Z,17.30
2023-05-12T12:07:34.457Z,17.70
2023-05-12T12:10:13.131Z,17.50
2023-05-12T12:12:41.239Z,17.60
2023-05-12T12:15:10.201Z,17.90
2023-05-12T12:17:38.510Z,17.50
2023-05-12T12:20:07.870Z,17.90
2023-05-12T12:22:37.506Z,17.60
2023-05-12T12:25:06.310Z,17.80
2023-05-12T12:27:34.333Z,17.70
2023-05-12T12:30:02.443Z,17.70
2023-05-12T12:32:30.449Z,17.60
2023-05-12T12:35:02.810Z,17.20
2023-05-12T12:37:30.820Z,17.30
2023-05-12T12:40:07.503Z,16.90
2023-05-12T12:42:36.551Z,17.30
2023-05-12T12:45:05.502Z,17.30
2023-05-12T12:47:33.442Z,17.50
2023-05-12T12:50:01.613Z,17.70
2023-05-12T12:52:29.594Z,17.80
2023-05-12T12:54:58.900Z,17.90
2023-05-12T12:57:27.422Z,18.20
2023-05-12T12:59:55.837Z,17.90
2023-05-12T13:02:24.057Z,18.10
2023-05-12T13:04:52.177Z,18.10
2023-05-12T13:07:20.297Z,18.60
2023-05-12T13:09:48.320Z,18.70
2023-05-12T13:12:17.536Z,18.20
2023-05-12T13:14:45.481Z,18.20
2023-05-12T13:17:13.420Z,18.70
2023-05-12T13:19:41.936Z,18.50
2023-05-12T13:22:10.030Z,18.50
2023-05-12T13:24:38.160Z,18.70
2023-05-12T13:27:08.372Z,18.40
2023-05-12T13:29:37.752Z,18.00
2023-05-12T13:32:06.047Z,18.10
2023-05-12T13:34:34.452Z,17.80
2023-05-12T13:37:02.384Z,17.30
2023-05-12T13:39:30.374Z,16.90
2023-05-12T13:41:58.381Z,16.50
2023-05-12T13:44:26.321Z,16.20
2023-05-12T13:46:55.613Z,16.00
2023-05-12T13:49:23.489Z,15.60
2023-05-12T13:51:51.430Z,15.70
2023-05-12T13:54:19.358Z,15.90
2023-05-12T13:56:47.235Z,15.90
2023-05-12T13:59:15.375Z,15.90
2023-05-12T14:01:44.299Z,16.10
2023-05-12T14:04:14.269Z,16.20
2023-05-12T14:06:42.493Z,16.10
2023-05-12T14:09:11.819Z,16.30
2023-05-12T14:11:39.791Z,16.40
2023-05-12T14:14:08.136Z,16.40
2023-05-12T14:16:36.188Z,16.30
2023-05-12T14:19:04.179Z,16.10
2023-05-12T14:21:33.521Z,15.80
2023-05-12T14:24:01.498Z,15.60
2023-05-12T14:26:29.454Z,15.30
2023-05-12T14:28:57.707Z,14.90
2023-05-12T14:31:25.906Z,15.00
2023-05-12T14:33:54.026Z,14.90
2023-05-12T14:36:21.925Z,15.10
2023-05-12T14:38:51.392Z,15.30
2023-05-12T14:41:19.338Z,15.60
2023-05-12T14:43:47.262Z,15.60
2023-05-12T14:46:15.376Z,14.90
2023-05-12T14:48:44.190Z,14.70
2023-05-12T14:51:12.193Z,14.40
2023-05-12T14:53:40.209Z,14.20
2023-05-12T14:56:09.514Z,14.10
2023-05-12T14:58:37.480Z,14.00
2023-05-12T15:01:06.841Z,13.90
2023-05-12T15:03:36.864Z,13.60
2023-05-12T15:06:07.830Z,13.70
2023-05-12T15:08:37.320Z,13.90
2023-05-12T15:11:05.494Z,13.90
2023-05-12T15:13:34.810Z,13.70
2023-05-12T15:16:04.461Z,13.50
2023-05-12T15:18:32.880Z,13.40
2023-05-12T15:21:03.963Z,13.50
2023-05-12T15:23:31.966Z,13.40
2023-05-12T15:26:07.169Z,13.50
2023-05-12T15:28:45.260Z,13.30
2023-05-12T15:31:13.216Z,13.30
2023-05-12T15:33:41.326Z,13.30
2023-05-12T15:36:11.421Z,13.30
2023-05-12T15:38:39.577Z,13.30
2023-05-12T15:41:07.507Z,13.30
2023-05-12T15:43:38.315Z,13.40
2023-05-12T15:46:07.829Z,13.40
2023-05-12T15:48:35.763Z,13.50
2023-05-12T15:51:04.112Z,13.40
2023-05-12T15:53:32.280Z,13.50
2023-05-12T15:56:01.089Z,13.40
2023-05-12T15:58:29.186Z,13.50
2023-05-12T16:00:57.482Z,13.50
2023-05-12T16:03:27.180Z,13.60
2023-05-12T16:05:56.291Z,13.60
2023-05-12T16:08:24.355Z,13.50
2023-05-12T16:10:52.361Z,13.60
2023-05-12T16:13:20.271Z,13.50
2023-05-12T16:15:50.641Z,13.20
2023-05-12T16:18:19.255Z,13.20
2023-05-12T16:20:49.996Z,13.30
2023-05-12T16:23:18.300Z,13.20
2023-05-12T16:25:46.537Z,13.40
2023-05-12T16:28:14.750Z,13.50
2023-05-12T16:30:42.834Z,13.70
2023-05-12T16:33:10.815Z,13.50
2023-05-12T16:35:38.911Z,13.50
2023-05-12T16:38:08.331Z,13.40
2023-05-12T16:40:36.376Z,13.50
2023-05-12T16:43:04.395Z,13.50
2023-05-12T16:45:32.828Z,13.40
2023-05-12T16:48:04.212Z,13.40
2023-05-12T16:50:32.543Z,13.50
2023-05-12T16:53:00.627Z,13.60
2023-05-12T16:55:30.039Z,13.50
2023-05-12T16:57:58.124Z,13.40
2023-05-12T17:00:26.044Z,13.40
2023-05-12T17:02:54.161Z,13.50
2023-05-12T17:05:22.887Z,13.50
2023-05-12T17:07:50.984Z,13.20
2023-05-12T17:10:20.372Z,13.00
2023-05-12T17:12:50.195Z,12.90
2023-05-12T17:15:18.216Z,12.60
2023-05-12T17:17:46.215Z,12.60
2023-05-12T17:20:14.583Z,12.50
2023-05-12T17:22:47.092Z,12.50
2023-05-12T17:25:15.519Z,12.40
2023-05-12T17:27:43.736Z,12.40
2023-05-12T17:30:13.788Z,12.40
2023-05-12T17:32:41.888Z,12.40
2023-05-12T17:35:10.836Z,12.30
2023-05-12T17:37:39.360Z,12.20
2023-05-12T17:40:08.955Z,12.10
2023-05-12T17:42:36.896Z,11.90
2023-05-12T17:45:05.479Z,12.00
2023-05-12T17:47:34.763Z,12.00
2023-05-12T17:50:02.729Z,11.90
2023-05-12T17:52:30.587Z,11.90
2023-05-12T17:54:58.991Z,11.70
2023-05-12T17:57:26.977Z,11.80
2023-05-12T17:59:56.518Z,11.80
2023-05-12T18:02:25.240Z,11.70
2023-05-12T18:04:54.670Z,11.60
2023-05-12T18:07:23.191Z,11.60
2023-05-12T18:09:51.195Z,11.60
2023-05-12T18:12:19.154Z,11.60
2023-05-12T18:14:47.200Z,11.60
2023-05-12T18:17:15.375Z,11.60
2023-05-12T18:19:45.934Z,11.50
2023-05-12T18:22:16.876Z,11.40
2023-05-12T18:24:44.833Z,11.40
2023-05-12T18:27:13.459Z,11.40
2023-05-12T18:29:43.474Z,11.30
2023-05-12T18:32:11.475Z,11.30
2023-05-12T18:34:39.420Z,11.30
2023-05-12T18:37:07.542Z,11.30
2023-05-12T18:39:36.975Z,11.30
2023-05-12T18:42:05.244Z,11.20
2023-05-12T18:44:33.153Z,11.30
2023-05-12T18:47:01.066Z,11.20
2023-05-12T18:49:30.618Z,11.20
2023-05-12T18:51:58.538Z,11.30
2023-05-12T18:54:26.481Z,11.20
2023-05-12T18:56:57.365Z,11.10
2023-05-12T18:59:25.361Z,11.10
2023-05-12T19:01:53.412Z,11.10
2023-05-12T19:04:21.889Z,11.20
2023-05-12T19:06:50.111Z,11.10
2023-05-12T19:09:18.038Z,11.10
2023-05-12T19:11:46.808Z,11.10
2023-05-12T19:14:16.735Z,11.00
2023-05-12T19:16:46.913Z,11.00
2023-05-12T19:19:15.001Z,11.00
2023-05-12T19:21:43.049Z,11.10
2023-05-12T19:24:11.054Z,11.00
2023-05-12T19:26:39.019Z,10.90
2023-05-12T19:29:07.177Z,10.90
2023-05-12T19:31:36.776Z,11.00
2023-05-12T19:34:05.430Z,11.00
2023-05-12T19:36:33.514Z,10.90
2023-05-12T19:39:01.441Z,10.90
2023-05-12T19:41:29.988Z,11.00
2023-05-12T19:43:57.972Z,11.00
2023-05-12T19:46:26.563Z,10.90
2023-05-12T19:48:55.854Z,11.00
2023-05-12T19:51:23.825Z,11.00
2023-05-12T19:53:52.876Z,10.90
2023-05-12T19:56:21.359Z,10.90
2023-05-12T19:58:49.744Z,10.80
2023-05-12T20:01:17.842Z,10.70
2023-05-12T20:03:47.168Z,10.70
2023-05-12T20:06:16.630Z,10.70
2023-05-12T20:08:44.520Z,10.70
2023-05-12T20:11:12.627Z,10.70
2023-05-12T20:13:40.903Z,10.70
2023-05-12T20:16:08.863Z,10.70
2023-05-12T20:18:36.929Z,10.60
2023-05-12T20:21:05.061Z,10.60
2023-05-12T20:23:35.634Z,10.60
2023-05-12T20:26:05.409Z,10.50
2023-05-12T20:31:53.141Z,10.40
2023-05-12T20:34:21.299Z,10.40
2023-05-12T20:36:50.047Z,10.50
2023-05-12T20:39:18.740Z,10.50
2023-05-12T20:41:46.719Z,10.40
2023-05-12T20:44:14.807Z,10.50
2023-05-12T20:46:42.876Z,10.40
2023-05-12T20:49:12.388Z,10.40
2023-05-12T20:51:40.768Z,10.40
2023-05-12T20:54:09.018Z,10.40
2023-05-12T20:56:37.048Z,10.40
2023-05-12T20:59:05.410Z,10.30
2023-05-12T21:01:33.766Z,10.30
2023-05-12T21:04:02.248Z,10.30
2023-05-12T21:06:32.759Z,10.30
2023-05-12T21:09:00.955Z,10.40
2023-05-12T21:11:29.698Z,10.30
2023-05-12T21:13:59.970Z,10.30
2023-05-12T21:16:28.020Z,10.30
2023-05-12T21:18:56.056Z,10.30
2023-05-12T21:21:24.048Z,10.30
2023-05-12T21:23:53.330Z,10.30
2023-05-12T21:26:21.326Z,10.30
2023-05-12T21:28:49.297Z,10.30
2023-05-12T21:31:17.293Z,10.30
2023-05-12T21:33:45.188Z,10.30
2023-05-12T21:36:14.744Z,10.30
2023-05-12T21:38:43.288Z,10.30
2023-05-12T21:41:12.813Z,10.30
2023-05-12T21:43:40.694Z,10.30
2023-05-12T21:46:08.696Z,10.30
2023-05-12T21:48:36.642Z,10.30
2023-05-12T21:51:05.520Z,10.30
2023-05-12T21:53:33.513Z,10.30
2023-05-12T21:56:01.426Z,10.30
2023-05-12T21:58:31.710Z,10.40
2023-05-12T22:01:00.153Z,10.40
2023-05-12T22:03:28.197Z,10.50
2023-05-12T22:05:56.805Z,10.40
2023-05-12T22:08:24.840Z,10.40
2023-05-12T22:10:52.779Z,10.30
2023-05-12T22:13:20.735Z,10.40
2023-05-12T22:15:50.656Z,10.50
2023-05-12T22:18:19.562Z,10.50
2023-05-12T22:20:47.532Z,10.50
2023-05-12T22:23:15.664Z,10.40
2023-05-12T22:25:43.660Z,10.40
2023-05-12T22:28:11.572Z,10.40
2023-05-12T22:30:39.526Z,10.40
2023-05-12T22:33:08.895Z,10.30
2023-05-12T22:35:37.070Z,10.40
2023-05-12T22:38:05.028Z,10.40
2023-05-12T22:40:33.676Z,10.40
2023-05-12T22:43:01.634Z,10.40
2023-05-12T22:45:29.747Z,10.30
2023-05-12T22:47:57.837Z,10.30
2023-05-12T22:50:27.152Z,10.20
2023-05-12T22:52:57.283Z,10.20
2023-05-12T22:55:28.208Z,10.20
2023-05-12T22:57:56.161Z,10.20
2023-05-12T23:00:24.081Z,10.30
2023-05-12T23:02:52.155Z,10.20
2023-05-12T23:05:20.248Z,10.20
2023-05-12T23:07:49.836Z,10.20
2023-05-12T23:10:18.011Z,10.10
2023-05-12T23:12:46.028Z,10.20
2023-05-12T23:15:14.044Z,10.10
2023-05-12T23:17:41.958Z,10.00
2023-05-12T23:20:10.546Z,10.00
2023-05-12T23:22:38.504Z,9.90
2023-05-12T23:25:08.893Z,10.00
2023-05-12T23:27:37.000Z,10.00
2023-05-12T23:30:05.849Z,10.00
2023-05-12T23:32:34.095Z,10.00
2023-05-12T23:35:02.065Z,10.00
2023-05-12T23:37:29.996Z,9.90
2023-05-12T23:40:00.188Z,9.90
2023-05-12T23:42:29.478Z,10.00
2023-05-12T23:44:59.542Z,10.00
2023-05-12T23:47:27.687Z,10.00
2023-05-12T23:49:55.869Z,9.90
2023-05-12T23:52:23.808Z,9.90
2023-05-12T23:54:51.698Z,9.90
2023-05-12T23:57:19.635Z,9.90
2023-05-12T23:59:51.281Z,9.90
